Little Rock Air Force Base
KLRF : now visible

Airfield :











YOU CAN JOIN US ON...

 
LOGIN :

Register | Disclaimer

   EN    FR    IT 

 









Legend :    VFR   Marginal VFR   IFR   Intensive IFR   Very Intensive IFR
Visi :
Ceiling :
>= 8 km
>= 3000ft
5 to 8 km
1000 to 3000 ft
1500m to 5 km
500 to 1000 ft
800 to 1500m
200 to 500 ft
< 800m
< 200 ft
Symbols :   Thunderstorms  Fog  Heavy snow  Heavy precipitations  Wind > 20 kt






- Airport Elevation : 311 ft


KLRF - Little Rock Air Force Base

CURRENT METAR :
  • 041556Z AUTO 03005KT 10SM FEW022 SCT028 25/19 A3005 RMK AO2 SLP176 T02500189 $

EXPIRED METARs :
  • 041511Z AUTO 05007KT 10SM OVC020 25/19 A3005 RMK AO2 CIG 019 RWY07 SLP176 $
  • 041456Z AUTO 03007KT 10SM BKN019 24/19 A3004 RMK AO2 CIG 018 RWY07 SLP173 T02390185 52009 $
  • 041441Z AUTO 03008KT 10SM BKN019 BKN065 24/19 A3004 RMK AO2 CIG 019V065 CIG 018 RWY07 SLP173 $
  • 041356Z AUTO 04008KT 10SM FEW016 23/18 A3004 RMK AO2 SLP173 T02310182 $

TAF TAF KLRF
Valid from the 04 at 15:00 until the 05 at 21:00 UTC


041500Z 0415/0521 03009KT 9999 FEW030 QNH2999INS
BECMG 0502/0503 04006KT 9999 BKN040 QNH3001INS
BECMG 0514/0515 04009KT 9999 FEW040 QNH2997INS TX28/0420Z TN17/0511Z
KZME FIR / North America



MET'MAP, your aeronautical weather chart ! - Copyright ORBIFLY December 2007 - Disclaimer

ORBIFLY MET'MAP TEAM :

Programming & Development : Alexandra Zaïnal
Concept & original design : Baudouin d'Aumeries
Assistance for programming : Marc-Olivier Méhu
Technical & hardware support : Manuel Goepfert

Contact : metmap@orbifly.com




SOURCES & CREDITS :

   NOAA       Earth
Advisory